Main page
METAR-TAF:

METAR-TAF

Airports :

Guilin, China

Guilin Liangjiang International Airport

latitude: 25-20N, longitude: 110-18E, elevation: 166 m

Current weather observation

The report was made 35 minutes ago, at 16:00 UTC
Wind 4 kt from variable directions
Temperature 9°C
Humidity 100%
Pressure 1027 hPa
Visibility: 5000 m
Few clouds at a height of 200 ft
Scattered clouds at a height of 3300 ft
Overcast at a height of 5600 ft
light rain, mist

METAR: ZGKL 241600Z VRB02MPS 5000 -RA BR FEW002 SCT033 OVC056 09/09 Q1027 NOSIG

Time: 00:35 (16:35 UTC)

Forecast

The report was made 7 hours and 32 minutes ago, at 09:03 UTC
Forecast valid from 24 at 12 UTC to 25 at 12 UTC
Wind 6 kt from the Northeast
Visibility: 6000 m
Scattered clouds at a height of 3000 ft
Overcast at a height of 5000 ft
light rain

TAF: ZGKL 240903Z 2412/2512 05003MPS 6000 -RA SCT030 OVC050 TX09/2412Z TN07/2422Z

Weather observations and forecasts of more than 4000 airports (METAR and TAF reports).

The available stations are represented by yellow and red dots on the map.

Hover mouse over dot to see the name of the station.

Then click to see weather observations and forecasts.

To change the map : click on the green buttons with a black cross to zoom in, on the green button with a dash to zoom out, or on the green arrows for adjacent maps.


METAR-TAF: